createdAt,value
2018-09-11T00:01:05.579Z,1.62
2018-09-11T00:03:33.298Z,1.17
2018-09-11T00:06:00.333Z,1.82
2018-09-11T00:08:27.403Z,2.25
2018-09-11T00:13:35.403Z,2.40
2018-09-11T00:16:02.426Z,2.10
2018-09-11T00:18:29.525Z,1.80
2018-09-11T00:20:56.548Z,1.75
2018-09-11T00:23:24.243Z,1.82
2018-09-11T00:25:51.324Z,2.10
2018-09-11T00:28:18.472Z,1.60
2018-09-11T00:30:45.587Z,1.80
2018-09-11T00:33:12.589Z,2.75
2018-09-11T00:35:39.617Z,1.17
2018-09-11T00:38:06.742Z,3.17
2018-09-11T00:40:33.779Z,1.90
2018-09-11T00:43:00.920Z,1.65
2018-09-11T00:45:27.923Z,2.15
2018-09-11T00:47:54.998Z,2.22
2018-09-11T00:50:22.033Z,1.22
2018-09-11T00:52:49.052Z,2.00
2018-09-11T00:55:16.472Z,1.95
2018-09-11T00:57:43.539Z,1.50
2018-09-11T01:00:10.564Z,1.22
2018-09-11T01:02:37.698Z,1.55
2018-09-11T01:05:04.753Z,1.80
2018-09-11T01:07:34.127Z,1.30
2018-09-11T01:10:01.506Z,2.65
2018-09-11T01:12:28.539Z,2.22
2018-09-11T01:14:55.553Z,1.52
2018-09-11T01:17:22.581Z,2.10
2018-09-11T01:19:49.608Z,2.10
2018-09-11T01:22:16.672Z,2.20
2018-09-11T01:24:43.695Z,1.60
2018-09-11T01:27:10.798Z,2.77
2018-09-11T01:29:37.795Z,2.87
2018-09-11T01:32:04.823Z,2.00
2018-09-11T01:34:31.857Z,2.00
2018-09-11T01:36:59.573Z,1.17
2018-09-11T01:39:26.604Z,1.02
2018-09-11T01:41:53.640Z,1.30
2018-09-11T01:44:20.759Z,1.90
2018-09-11T01:46:47.742Z,1.35
2018-09-11T01:49:14.830Z,1.70
2018-09-11T01:51:41.867Z,2.02
2018-09-11T01:54:08.896Z,2.33
2018-09-11T01:56:35.913Z,1.67
2018-09-11T01:59:03.008Z,1.52
2018-09-11T02:01:30.018Z,1.70
2018-09-11T02:03:57.067Z,2.02
2018-09-11T02:06:24.098Z,2.10
2018-09-11T02:08:51.238Z,2.67
2018-09-11T02:11:18.304Z,1.98
2018-09-11T02:13:45.417Z,1.87
2018-09-11T02:16:12.566Z,3.15
2018-09-11T02:18:39.713Z,1.90
2018-09-11T02:21:06.744Z,1.15
2018-09-11T02:23:33.781Z,1.52
2018-09-11T02:26:00.858Z,2.35
2018-09-11T02:28:27.964Z,1.37
2018-09-11T02:30:55.003Z,2.08
2018-09-11T02:33:22.106Z,1.57
2018-09-11T02:35:49.258Z,3.15
2018-09-11T02:38:16.413Z,1.62
2018-09-11T02:40:43.457Z,2.17
2018-09-11T02:43:10.491Z,2.25
2018-09-11T02:45:37.539Z,1.50
2018-09-11T02:48:04.655Z,1.50
2018-09-11T02:50:31.678Z,1.35
2018-09-11T02:52:58.744Z,1.45
2018-09-11T02:55:25.783Z,2.58
2018-09-11T02:57:52.845Z,2.37
2018-09-11T03:00:19.880Z,2.05
2018-09-11T03:02:46.951Z,1.72
2018-09-11T03:05:13.977Z,1.82
2018-09-11T03:07:41.011Z,1.75
2018-09-11T03:10:08.021Z,1.60
2018-09-11T03:12:35.048Z,2.25
2018-09-11T03:15:02.083Z,1.75
2018-09-11T03:17:29.191Z,1.85
2018-09-11T03:19:56.220Z,1.72
2018-09-11T03:22:23.296Z,2.08
2018-09-11T03:24:50.473Z,1.95
2018-09-11T03:27:17.564Z,1.65
2018-09-11T03:29:44.598Z,2.22
2018-09-11T03:32:11.598Z,2.30
2018-09-11T03:34:38.755Z,2.47
2018-09-11T03:37:05.957Z,1.92
2018-09-11T03:39:32.974Z,1.62
2018-09-11T03:41:59.990Z,1.80
2018-09-11T03:44:27.006Z,2.30
2018-09-11T03:46:54.034Z,1.75
2018-09-11T03:49:21.896Z,1.20
2018-09-11T03:51:48.923Z,1.40
2018-09-11T03:54:15.949Z,1.92
2018-09-11T03:56:42.976Z,2.37
2018-09-11T03:59:10.104Z,1.50
2018-09-11T04:01:37.120Z,2.10
2018-09-11T04:04:04.162Z,2.83
2018-09-11T04:06:31.275Z,1.45
2018-09-11T04:08:58.435Z,3.05
2018-09-11T04:11:25.532Z,1.60
2018-09-11T04:13:52.557Z,1.77
2018-09-11T04:16:19.578Z,1.45
2018-09-11T04:18:46.673Z,2.02
2018-09-11T04:21:13.714Z,1.65
2018-09-11T04:23:40.769Z,2.22
2018-09-11T04:26:08.633Z,1.75
2018-09-11T04:28:35.673Z,1.22
2018-09-11T04:31:02.705Z,1.27
2018-09-11T04:33:29.735Z,2.47
2018-09-11T04:35:56.813Z,1.42
2018-09-11T04:38:23.900Z,2.27
2018-09-11T04:40:50.955Z,2.10
2018-09-11T04:43:18.045Z,1.57
2018-09-11T04:45:45.054Z,2.00
2018-09-11T04:48:12.157Z,2.25
2018-09-11T04:50:40.168Z,1.50
2018-09-11T04:53:07.186Z,1.75
2018-09-11T04:55:34.214Z,2.30
2018-09-11T04:58:01.274Z,1.35
2018-09-11T05:00:28.326Z,1.82
2018-09-11T05:02:55.362Z,1.20
2018-09-11T05:05:22.430Z,1.70
2018-09-11T05:07:49.544Z,2.40
2018-09-11T05:10:16.584Z,2.77
2018-09-11T05:12:44.451Z,2.55
2018-09-11T05:15:11.494Z,2.35
2018-09-11T05:17:38.557Z,2.95
2018-09-11T05:20:05.594Z,1.92
2018-09-11T05:22:32.614Z,2.27
2018-09-11T05:24:59.628Z,2.87
2018-09-11T05:27:26.803Z,1.75
2018-09-11T05:29:53.755Z,2.42
2018-09-11T05:32:20.777Z,1.95
2018-09-11T05:34:47.812Z,1.65
2018-09-11T05:37:14.952Z,2.62
2018-09-11T05:39:42.055Z,2.17
2018-09-11T05:42:09.204Z,2.15
2018-09-11T05:44:36.237Z,2.20
2018-09-11T05:47:03.352Z,2.45
2018-09-11T05:49:30.367Z,1.98
2018-09-11T05:51:57.400Z,1.62
2018-09-11T05:54:24.454Z,1.80
2018-09-11T05:56:51.498Z,2.33
2018-09-11T05:59:18.698Z,2.30
2018-09-11T06:01:45.740Z,2.08
2018-09-11T06:04:12.819Z,1.30
2018-09-11T06:06:39.839Z,2.40
2018-09-11T06:09:07.888Z,1.52
2018-09-11T06:11:34.966Z,2.02
2018-09-11T06:14:02.051Z,1.72
2018-09-11T06:16:29.089Z,1.90
2018-09-11T06:18:56.154Z,1.80
2018-09-11T06:21:23.185Z,1.45
2018-09-11T06:23:50.258Z,1.70
2018-09-11T06:26:17.447Z,2.20
2018-09-11T06:28:44.521Z,1.35
2018-09-11T06:31:11.603Z,1.60
2018-09-11T06:33:38.924Z,1.60
2018-09-11T06:36:06.090Z,1.40
2018-09-11T06:38:33.213Z,2.08
2018-09-11T06:41:00.332Z,1.77
2018-09-11T06:43:27.313Z,1.80
2018-09-11T06:45:54.348Z,2.52
2018-09-11T06:48:21.539Z,1.75
2018-09-11T06:50:48.554Z,3.27
2018-09-11T06:53:15.580Z,3.37
2018-09-11T06:55:43.375Z,1.82
2018-09-11T06:58:10.538Z,2.50
2018-09-11T07:00:37.626Z,1.85
2018-09-11T07:03:04.646Z,3.30
2018-09-11T07:05:31.763Z,2.22
2018-09-11T07:07:59.565Z,2.00
2018-09-11T07:10:26.852Z,1.62
2018-09-11T07:12:53.869Z,2.08
2018-09-11T07:15:20.898Z,2.52
2018-09-11T07:17:48.041Z,3.08
2018-09-11T07:20:15.347Z,1.95
2018-09-11T07:22:42.130Z,3.22
2018-09-11T07:25:09.544Z,3.27
2018-09-11T07:27:37.093Z,2.10
2018-09-11T07:30:04.171Z,3.87
2018-09-11T07:32:31.526Z,2.40
2018-09-11T07:34:58.693Z,2.35
2018-09-11T07:37:25.841Z,4.10
2018-09-11T07:39:52.990Z,3.50
2018-09-11T07:42:20.086Z,2.05
2018-09-11T07:44:47.183Z,2.70
2018-09-11T07:47:14.403Z,2.02
2018-09-11T07:49:41.487Z,3.00
2018-09-11T07:52:08.535Z,3.12
2018-09-11T07:54:35.577Z,2.33
2018-09-11T07:57:02.681Z,2.37
2018-09-11T07:59:29.702Z,1.60
2018-09-11T08:01:56.842Z,3.65
2018-09-11T08:04:24.079Z,1.95
2018-09-11T08:06:51.695Z,2.80
2018-09-11T08:09:18.984Z,3.40
2018-09-11T08:11:46.082Z,2.20
2018-09-11T08:14:13.800Z,1.70
2018-09-11T08:16:40.821Z,2.30
2018-09-11T08:19:07.980Z,2.05
2018-09-11T08:21:35.028Z,2.20
2018-09-11T08:24:02.075Z,2.27
2018-09-11T08:26:29.107Z,2.45
2018-09-11T08:28:56.176Z,2.08
2018-09-11T08:31:23.200Z,1.90
2018-09-11T08:33:50.253Z,2.50
2018-09-11T08:36:17.688Z,2.40
2018-09-11T08:38:44.834Z,2.15
2018-09-11T08:41:11.963Z,2.50
2018-09-11T08:43:39.331Z,2.27
2018-09-11T08:46:06.813Z,2.77
2018-09-11T08:48:33.920Z,4.50
2018-09-11T08:51:00.956Z,2.77
2018-09-11T08:53:28.060Z,2.60
2018-09-11T08:55:55.066Z,2.45
2018-09-11T08:58:22.136Z,3.12
2018-09-11T09:00:49.150Z,3.25
2018-09-11T09:03:16.194Z,3.22
2018-09-11T09:05:43.231Z,2.33
2018-09-11T09:08:10.343Z,2.95
2018-09-11T09:10:37.361Z,2.40
2018-09-11T09:13:04.402Z,2.50
2018-09-11T09:15:31.466Z,2.60
2018-09-11T09:17:58.624Z,2.62
2018-09-11T09:20:25.689Z,2.45
2018-09-11T09:22:52.716Z,2.05
2018-09-11T09:25:19.770Z,1.77
2018-09-11T09:27:46.871Z,2.00
2018-09-11T09:30:13.894Z,3.42
2018-09-11T09:32:40.944Z,2.40
2018-09-11T09:35:07.967Z,2.85
2018-09-11T09:37:35.064Z,2.52
2018-09-11T09:40:02.143Z,2.15
2018-09-11T09:42:29.339Z,1.98
2018-09-11T09:44:56.410Z,2.22
2018-09-11T09:47:23.453Z,2.67
2018-09-11T09:49:50.494Z,3.12
2018-09-11T09:52:17.576Z,2.08
2018-09-11T09:54:44.598Z,2.30
2018-09-11T09:57:11.740Z,2.37
2018-09-11T09:59:38.793Z,2.72
2018-09-11T10:02:11.366Z,2.62
2018-09-11T10:04:38.430Z,3.12
2018-09-11T10:07:05.582Z,2.70
2018-09-11T10:09:32.612Z,2.52
2018-09-11T10:11:59.649Z,3.45
2018-09-11T10:14:27.654Z,2.98
2018-09-11T10:16:54.690Z,2.87
2018-09-11T10:19:21.724Z,2.40
2018-09-11T10:21:48.883Z,2.72
2018-09-11T10:24:15.990Z,2.77
2018-09-11T10:26:43.036Z,2.72
2018-09-11T10:29:10.086Z,2.70
2018-09-11T10:31:37.161Z,3.10
2018-09-11T10:34:04.182Z,2.67
2018-09-11T10:36:31.231Z,2.05
2018-09-11T10:38:58.388Z,1.80
2018-09-11T10:41:25.416Z,3.35
2018-09-11T10:43:52.438Z,2.58
2018-09-11T10:46:19.489Z,2.98
2018-09-11T10:48:46.665Z,1.80
2018-09-11T10:51:13.639Z,4.00
2018-09-11T10:53:40.690Z,2.62
2018-09-11T10:56:07.717Z,2.30
2018-09-11T10:58:34.789Z,2.65
2018-09-11T11:01:01.917Z,2.85
2018-09-11T11:03:28.956Z,2.70
2018-09-11T11:05:55.988Z,2.00
2018-09-11T11:08:23.040Z,2.55
2018-09-11T11:10:50.118Z,2.15
2018-09-11T11:13:18.157Z,2.45
2018-09-11T11:15:45.147Z,1.98
2018-09-11T11:18:12.356Z,1.90
2018-09-11T11:20:39.398Z,2.10
2018-09-11T11:23:06.868Z,3.15
2018-09-11T11:25:33.964Z,2.65
2018-09-11T11:28:01.176Z,2.67
2018-09-11T11:30:28.199Z,2.05
2018-09-11T11:32:55.222Z,2.67
2018-09-11T11:35:22.255Z,3.37
2018-09-11T11:37:49.343Z,2.22
2018-09-11T11:40:16.385Z,2.40
2018-09-11T11:42:43.468Z,2.52
2018-09-11T11:45:10.449Z,3.10
2018-09-11T11:47:37.650Z,1.42
2018-09-11T11:50:04.992Z,2.70
2018-09-11T11:52:32.006Z,3.05
2018-09-11T11:54:59.161Z,2.67
2018-09-11T11:57:26.231Z,3.37
2018-09-11T11:59:53.346Z,2.08
2018-09-11T12:02:20.657Z,3.02
2018-09-11T12:04:47.792Z,1.70
2018-09-11T12:07:14.917Z,3.55
2018-09-11T12:09:41.989Z,2.70
2018-09-11T12:12:09.134Z,3.22
2018-09-11T12:14:36.138Z,3.10
2018-09-11T12:17:03.294Z,2.22
2018-09-11T12:19:30.286Z,2.72
2018-09-11T12:21:57.309Z,3.50
2018-09-11T12:24:24.370Z,2.98
2018-09-11T12:26:51.426Z,3.25
2018-09-11T12:29:18.533Z,2.65
2018-09-11T12:31:45.550Z,3.05
2018-09-11T12:34:12.589Z,2.30
2018-09-11T12:36:39.662Z,2.92
2018-09-11T12:39:07.083Z,2.65
2018-09-11T12:41:34.202Z,3.33
2018-09-11T12:44:01.249Z,3.45
2018-09-11T12:46:28.630Z,4.05
2018-09-11T12:48:55.480Z,2.35
2018-09-11T12:51:22.512Z,3.25
2018-09-11T12:53:49.521Z,3.33
2018-09-11T12:56:16.560Z,3.10
2018-09-11T12:58:43.727Z,2.60
2018-09-11T13:01:10.774Z,2.47
2018-09-11T13:03:37.852Z,2.40
2018-09-11T13:06:04.968Z,1.90
2018-09-11T13:08:32.221Z,2.00
2018-09-11T13:10:59.349Z,2.27
2018-09-11T13:13:26.380Z,2.45
2018-09-11T13:15:53.423Z,2.45
2018-09-11T13:18:20.486Z,2.70
2018-09-11T13:20:47.551Z,2.67
2018-09-11T13:23:14.602Z,3.12
2018-09-11T13:25:41.644Z,2.10
2018-09-11T13:28:08.757Z,2.12
2018-09-11T13:30:35.832Z,2.50
2018-09-11T13:33:02.865Z,2.98
2018-09-11T13:35:29.906Z,2.08
2018-09-11T13:37:56.984Z,3.02
2018-09-11T13:40:24.002Z,2.50
2018-09-11T13:42:51.109Z,2.45
2018-09-11T13:45:18.217Z,3.33
2018-09-11T13:47:45.394Z,2.80
2018-09-11T13:50:12.808Z,3.02
2018-09-11T13:52:40.278Z,2.35
2018-09-11T13:55:07.297Z,2.40
2018-09-11T13:57:34.337Z,2.42
2018-09-11T14:00:02.337Z,2.83
2018-09-11T14:02:29.773Z,2.58
2018-09-11T14:04:56.840Z,2.52
2018-09-11T14:07:23.971Z,3.15
2018-09-11T14:12:23.965Z,3.35
2018-09-11T14:14:51.036Z,2.72
2018-09-11T14:17:18.390Z,2.72
2018-09-11T14:19:45.452Z,2.60
2018-09-11T14:22:12.490Z,3.85
2018-09-11T14:24:39.542Z,3.17
2018-09-11T14:27:06.578Z,2.45
2018-09-11T14:29:33.632Z,2.33
2018-09-11T14:32:00.801Z,1.80
2018-09-11T14:34:28.251Z,2.85
2018-09-11T14:36:55.389Z,1.80
2018-09-11T14:39:22.463Z,2.40
2018-09-11T14:41:49.549Z,2.70
2018-09-11T14:44:16.758Z,2.52
2018-09-11T14:46:44.135Z,1.85
2018-09-11T14:49:11.266Z,2.90
2018-09-11T14:51:38.427Z,2.72
2018-09-11T14:54:05.564Z,2.37
2018-09-11T14:56:32.717Z,2.47
2018-09-11T14:58:59.905Z,2.75
2018-09-11T15:01:27.010Z,2.05
2018-09-11T15:03:54.098Z,3.00
2018-09-11T15:06:21.202Z,2.10
2018-09-11T15:08:48.474Z,2.52
2018-09-11T15:11:15.935Z,2.27
2018-09-11T15:13:45.639Z,3.20
2018-09-11T15:16:13.807Z,2.12
2018-09-11T15:18:42.083Z,2.10
2018-09-11T15:21:09.625Z,4.35
2018-09-11T15:23:37.094Z,2.42
2018-09-11T15:26:04.641Z,4.15
2018-09-11T15:28:32.075Z,3.40
2018-09-11T15:30:59.554Z,3.20
2018-09-11T15:33:26.938Z,3.92
2018-09-11T15:35:54.399Z,2.77
2018-09-11T15:38:21.857Z,3.02
2018-09-11T15:40:49.228Z,2.98
2018-09-11T15:43:16.294Z,3.30
2018-09-11T15:45:43.428Z,2.95
2018-09-11T15:48:10.598Z,4.65
2018-09-11T15:50:37.622Z,5.00
2018-09-11T15:53:04.658Z,4.00
2018-09-11T15:55:31.709Z,3.87
2018-09-11T15:57:59.596Z,3.65
2018-09-11T16:00:26.635Z,2.80
2018-09-11T16:02:53.646Z,2.85
2018-09-11T16:05:20.701Z,3.35
2018-09-11T16:07:47.781Z,4.22
2018-09-11T16:10:14.819Z,3.27
2018-09-11T16:12:41.849Z,4.85
2018-09-11T16:15:09.018Z,4.25
2018-09-11T16:17:36.212Z,3.05
2018-09-11T16:20:03.231Z,3.80
2018-09-11T16:22:30.325Z,4.10
2018-09-11T16:24:57.380Z,2.92
2018-09-11T16:27:24.660Z,5.17
2018-09-11T16:29:52.086Z,3.33
2018-09-11T16:32:19.214Z,4.10
2018-09-11T16:34:47.745Z,3.15
2018-09-11T16:37:14.959Z,3.50
2018-09-11T16:39:42.081Z,4.12
2018-09-11T16:42:09.291Z,3.00
2018-09-11T16:44:36.649Z,3.45
2018-09-11T16:47:03.913Z,4.62
2018-09-11T16:49:30.989Z,2.42
2018-09-11T16:51:58.172Z,2.55
2018-09-11T16:54:25.238Z,2.70
2018-09-11T16:56:52.521Z,2.80
2018-09-11T16:59:19.685Z,3.20
2018-09-11T17:01:46.757Z,3.40
2018-09-11T17:04:13.897Z,2.80
2018-09-11T17:06:40.985Z,2.65
2018-09-11T17:09:08.365Z,3.20
2018-09-11T17:11:35.459Z,3.22
2018-09-11T17:14:03.487Z,2.75
2018-09-11T17:16:30.598Z,2.60
2018-09-11T17:18:58.343Z,3.42
2018-09-11T17:21:25.457Z,2.60
2018-09-11T17:23:52.545Z,4.28
2018-09-11T17:26:20.013Z,3.15
2018-09-11T17:28:47.261Z,3.33
2018-09-11T17:31:14.425Z,4.85
2018-09-11T17:33:41.593Z,2.40
2018-09-11T17:36:08.913Z,3.72
2018-09-11T17:38:36.221Z,3.60
2018-09-11T17:41:03.495Z,3.58
2018-09-11T17:43:30.631Z,2.25
2018-09-11T17:45:57.889Z,4.08
2018-09-11T17:48:25.118Z,3.67
2018-09-11T17:50:52.453Z,3.30
2018-09-11T17:53:19.857Z,3.40
2018-09-11T17:55:47.245Z,4.00
2018-09-11T17:58:14.597Z,2.85
2018-09-11T18:00:42.173Z,2.70
2018-09-11T18:03:09.299Z,2.40
2018-09-11T18:05:36.670Z,3.10
2018-09-11T18:08:03.801Z,4.72
2018-09-11T18:10:30.893Z,2.90
2018-09-11T18:12:58.802Z,4.92
2018-09-11T18:15:25.917Z,3.40
2018-09-11T18:17:53.069Z,3.42
2018-09-11T18:20:20.367Z,2.80
2018-09-11T18:22:47.471Z,5.85
2018-09-11T18:25:14.528Z,3.12
2018-09-11T18:27:41.616Z,3.87
2018-09-11T18:30:08.749Z,3.42
2018-09-11T18:32:35.887Z,3.87
2018-09-11T18:35:02.961Z,3.58
2018-09-11T18:37:30.120Z,2.58
2018-09-11T18:39:57.166Z,3.92
2018-09-11T18:42:24.217Z,4.60
2018-09-11T18:44:51.392Z,4.05
2018-09-11T18:47:18.543Z,4.30
2018-09-11T18:49:46.244Z,2.92
2018-09-11T18:52:13.349Z,2.40
2018-09-11T18:54:40.445Z,4.42
2018-09-11T18:57:08.670Z,3.00
2018-09-11T18:59:35.792Z,2.65
2018-09-11T19:02:02.908Z,2.40
2018-09-11T19:04:30.878Z,4.05
2018-09-11T19:06:59.371Z,3.55
2018-09-11T19:09:26.448Z,2.35
2018-09-11T19:11:53.518Z,2.50
2018-09-11T19:14:20.630Z,4.20
2018-09-11T19:16:47.776Z,4.00
2018-09-11T19:19:14.891Z,2.90
2018-09-11T19:21:42.009Z,2.85
2018-09-11T19:24:09.087Z,4.12
2018-09-11T19:26:36.162Z,3.45
2018-09-11T19:29:03.276Z,3.08
2018-09-11T19:31:30.368Z,3.40
2018-09-11T19:33:57.525Z,4.45
2018-09-11T19:36:24.626Z,2.83
2018-09-11T19:38:51.875Z,5.17
2018-09-11T19:41:19.121Z,2.27
2018-09-11T19:43:46.351Z,2.52
2018-09-11T19:46:13.443Z,2.80
2018-09-11T19:48:40.672Z,3.67
2018-09-11T19:51:07.742Z,3.85
2018-09-11T19:53:34.869Z,2.72
2018-09-11T19:56:02.012Z,2.90
2018-09-11T19:58:29.186Z,3.17
2018-09-11T20:00:56.281Z,4.53
2018-09-11T20:03:23.418Z,3.37
2018-09-11T20:05:50.762Z,3.10
2018-09-11T20:08:18.000Z,3.40
2018-09-11T20:10:45.104Z,3.15
2018-09-11T20:13:12.176Z,3.45
2018-09-11T20:15:39.266Z,3.72
2018-09-11T20:18:06.767Z,3.25
2018-09-11T20:20:33.891Z,2.85
2018-09-11T20:23:00.987Z,3.22
2018-09-11T20:25:28.102Z,4.47
2018-09-11T20:27:55.196Z,5.87
2018-09-11T20:30:22.274Z,3.33
2018-09-11T20:32:49.351Z,5.17
2018-09-11T20:35:16.466Z,3.12
2018-09-11T20:37:43.549Z,4.00
2018-09-11T20:40:10.626Z,4.30
2018-09-11T20:42:37.706Z,4.70
2018-09-11T20:45:04.894Z,4.37
2018-09-11T20:47:31.973Z,5.40
2018-09-11T20:49:59.535Z,4.15
2018-09-11T20:52:27.453Z,4.35
2018-09-11T20:54:54.530Z,5.25
2018-09-11T20:57:21.658Z,3.77
2018-09-11T20:59:48.721Z,3.40
2018-09-11T21:02:15.777Z,4.20
2018-09-11T21:04:42.854Z,4.87
2018-09-11T21:07:10.055Z,6.55
2018-09-11T21:09:37.113Z,3.52
2018-09-11T21:12:04.204Z,5.10
2018-09-11T21:14:31.276Z,4.50
2018-09-11T21:16:58.629Z,4.03
2018-09-11T21:19:25.745Z,5.90
2018-09-11T21:21:52.824Z,3.85
2018-09-11T21:24:19.921Z,4.55
2018-09-11T21:26:47.630Z,3.80
2018-09-11T21:29:17.856Z,4.22
2018-09-11T21:31:45.020Z,3.65
2018-09-11T21:34:12.086Z,3.77
2018-09-11T21:36:40.115Z,3.72
2018-09-11T21:39:07.718Z,4.25
2018-09-11T21:41:34.785Z,5.10
2018-09-11T21:44:02.701Z,3.87
2018-09-11T21:46:29.765Z,3.65
2018-09-11T21:48:56.924Z,4.05
2018-09-11T21:51:24.135Z,5.15
2018-09-11T21:53:51.237Z,5.55
2018-09-11T21:56:18.689Z,2.67
2018-09-11T21:58:45.813Z,3.60
2018-09-11T22:01:18.360Z,5.78
2018-09-11T22:03:45.451Z,4.90
2018-09-11T22:06:13.064Z,3.67
2018-09-11T22:08:40.268Z,2.70
2018-09-11T22:11:08.004Z,3.70
2018-09-11T22:13:35.166Z,4.12
2018-09-11T22:16:02.282Z,4.35
2018-09-11T22:18:29.480Z,4.70
2018-09-11T22:20:56.783Z,4.40
2018-09-11T22:23:23.938Z,3.72
2018-09-11T22:25:51.019Z,4.47
2018-09-11T22:28:18.181Z,4.50
2018-09-11T22:30:45.368Z,4.83
2018-09-11T22:33:12.448Z,3.85
2018-09-11T22:35:39.850Z,3.50
2018-09-11T22:38:07.056Z,4.08
2018-09-11T22:40:35.117Z,3.72
2018-09-11T22:43:02.224Z,3.50
2018-09-11T22:45:30.161Z,3.15
2018-09-11T22:47:57.885Z,4.05
2018-09-11T22:50:25.464Z,3.92
2018-09-11T22:52:52.545Z,3.52
2018-09-11T22:55:19.617Z,3.72
2018-09-11T22:57:46.870Z,3.95
2018-09-11T23:00:13.925Z,3.52
2018-09-11T23:02:41.026Z,4.67
2018-09-11T23:05:08.133Z,5.30
2018-09-11T23:07:35.323Z,3.67
2018-09-11T23:10:02.440Z,4.10
2018-09-11T23:12:29.534Z,4.28
2018-09-11T23:14:56.802Z,4.97
2018-09-11T23:17:23.981Z,4.35
2018-09-11T23:19:51.565Z,4.12
2018-09-11T23:22:18.647Z,4.40
2018-09-11T23:24:45.713Z,4.50
2018-09-11T23:27:13.492Z,4.50
2018-09-11T23:29:40.571Z,3.95
2018-09-11T23:32:07.850Z,4.00
2018-09-11T23:34:34.977Z,4.30
2018-09-11T23:37:02.063Z,4.72
2018-09-11T23:39:29.153Z,4.55
2018-09-11T23:41:56.269Z,2.98
2018-09-11T23:44:23.352Z,3.87
2018-09-11T23:46:50.521Z,5.72
2018-09-11T23:49:17.716Z,6.17
2018-09-11T23:51:44.806Z,3.12
2018-09-11T23:54:11.905Z,2.90
2018-09-11T23:56:38.992Z,3.08
